Bookmark and Share
Track history (hours):
 

Pacific Fantasy

Last reported at 2014-Apr-23 07:06 UTC. Time now 2014-Apr-24 06:00 UTC.
Position N 40°32' E 027°05'.

Length 180 m; draft 6.5 m.

Type: Cargo ship. MMSI: 636013744.

NotesDate/timePositionNaut miles runAvg speedWind from/ knotsBaromVisibWave heightAir tempDewpointWater temp
2014-Apr-23 07:06N 40°32' E 027°05'912.2
2014-Apr-23 06:24N 40°29' E 026°55'3110.0
2014-Apr-23 03:20N 40°10' E 026°24'14 7.2
2014-Apr-23 01:27N 40°01' E 026°10'7 7.4
2014-Apr-23 00:32N 39°59' E 026°01'8 7.6
2014-Apr-22 23:29N 39°53' E 025°55'1010.3
2014-Apr-22 22:31N 39°45' E 025°47'10911.9
2014-Apr-22 13:19N 37°56' E 025°43'2212.4
2014-Apr-22 11:33N 37°34' E 025°44'1312.5
2014-Apr-22 10:32N 37°23' E 025°52'1212.1
2014-Apr-22 09:33N 37°13' E 025°60'1312.5
2014-Apr-22 08:33N 37°02' E 026°08'1212.4
2014-Apr-22 07:33N 36°53' E 026°17'1312.5
2014-Apr-22 06:33N 36°44' E 026°28'1212.3
2014-Apr-22 05:33N 36°35' E 026°40'1212.2
2014-Apr-22 04:33N 36°27' E 026°50'1212.4
2014-Apr-22 03:33N 36°18' E 027°02'2712.3
2014-Apr-22 01:23N 35°60' E 027°25'1012.2
2014-Apr-22 00:34N 35°50' E 027°30'1812.1
2014-Apr-21 23:06N 35°34' E 027°38'712.1
2014-Apr-21 22:33N 35°28' E 027°41'3612.1
2014-Apr-21 19:33N 34°54' E 027°58'6211.7
2014-Apr-21 14:15N 33°57' E 028°27'2111.6
2014-Apr-21 12:27N 33°38' E 028°36'5911.6
2014-Apr-21 07:20N 32°43' E 029°03'  

Dump ship's entire track history

sailing weather and tide predictions

Pacific Fantasy — A8MV6 — position and weather